• Join FlightAware (Why Join?)
  • Login
  • US Flag 
08:00PM EDT


 

Airport Tracker/Info


-or-


 

Live Flight TrackerFlight Track Log ✈ SWA1377 ✈ 16-Apr-2013 ✈ KSAT - KMDW

Flight Track Log - Related Links

Times and Time Zones

All times are in EDT time to prevent confusion due to time zone crossing. See the SWA1377 flight status page for this flight to view local times or setup timezone preferences in your user account.

Time Position Orientation Groundspeed Altitude Reporting Facility
EDT Latitude Longitude Course Direction KTS MPH feet Rate Location/Type
07:06AM 29.5222 -98.4592 119° Southeast 150 173 1,900  Level Houston Center
07:07AM 29.4989 -98.4117 119° Southeast 204 235 4,100 2,460 Climbing Houston Center
07:08AM 29.5542 -98.3714 32° Northeast 264 304 6,900 2,880 Climbing Houston Center
07:09AM 29.6528 -98.3750 358° North 293 337 10,600 2,820 Climbing Houston Center
07:10AM 29.7447 -98.3781 358° North 336 387 13,300 2,580 Climbing Houston Center
07:11AM 29.8519 -98.3831 358° North 362 417 15,900 2,820 Climbing Houston Center
07:13AM 29.9561 -98.3869 358° North 373 429 19,000 3,000 Climbing Houston Center
07:14AM 30.0681 -98.3833 North 404 465 22,000 2,820 Climbing Houston Center
07:15AM 30.1775 -98.3364 20° North 417 480 24,800 2,340 Climbing Houston Center
07:16AM 30.2928 -98.2881 20° North 437 503 26,800 1,860 Climbing Houston Center
07:17AM 30.4089 -98.2419 19° North 461 531 28,600 1,800 Climbing Houston Center
07:18AM 30.5350 -98.1886 20° North 472 543 30,500 1,740 Climbing Houston Center
07:19AM 30.6650 -98.1358 19° North 484 557 32,200 1,680 Climbing Houston Center
07:20AM 30.7958 -98.0806 20° North 492 566 34,000 1,500 Climbing Houston Center
07:21AM 30.9300 -98.0247 20° North 501 577 35,300 1,380 Climbing Houston Center
07:22AM 31.0908 -97.9592 19° North 493 567 37,100 1,500 Climbing Fort Worth Center
07:23AM 31.2247 -97.9042 19° North 493 567 38,600 1,200 Climbing Fort Worth Center
07:24AM 31.3544 -97.8464 21° North 493 567 39,600 1,200 Climbing Fort Worth Center
07:25AM 31.4861 -97.7908 20° North 493 567 41,000 660 Climbing Fort Worth Center
07:26AM 31.6011 -97.7403 21° North 485 558 41,000  Level Fort Worth Center
07:27AM 31.7308 -97.6869 19° North 490 564 41,000  Level Fort Worth Center
07:28AM 31.8583 -97.6336 20° North 490 564 41,000  Level Fort Worth Center
07:29AM 31.9939 -97.5725 21° North 484 557 41,000  Level Fort Worth Center
07:30AM 32.1214 -97.5164 20° North 484 557 41,000  Level Fort Worth Center
07:31AM 32.2508 -97.4600 20° North 490 564 41,000  Level Fort Worth Center
07:32AM 32.3658 -97.4108 20° North 490 564 41,000  Level Fort Worth Center
07:33AM 32.4911 -97.3567 20° North 491 565 41,000  Level Fort Worth Center
07:34AM 32.6225 -97.3000 20° North 483 556 41,000  Level Fort Worth Center
07:35AM 32.7478 -97.2406 22° Northeast 490 564 41,000  Level Fort Worth Center
07:36AM 32.8936 -97.1758 20° North 490 564 41,000  Level Fort Worth Center
07:37AM 33.0019 -97.1014 30° Northeast 495 570 41,000  Level Fort Worth Center
07:38AM 33.1269 -97.0142 30° Northeast 516 594 41,000  Level Fort Worth Center
07:39AM 33.2458 -96.9317 30° Northeast 497 572 41,000  Level Fort Worth Center
07:40AM 33.3603 -96.8514 30° Northeast 492 566 41,000  Level Fort Worth Center
07:41AM 33.4808 -96.7683 30° Northeast 487 560 41,000  Level Fort Worth Center
07:42AM 33.5972 -96.6853 31° Northeast 487 560 41,000  Level Fort Worth Center
07:43AM 33.7158 -96.6019 30° Northeast 487 560 41,000  Level Fort Worth Center
07:44AM 33.8300 -96.5208 31° Northeast 487 560 41,000  Level Fort Worth Center
07:45AM 33.9586 -96.4294 31° Northeast 487 560 41,000  Level Fort Worth Center
07:46AM 34.0750 -96.3478 30° Northeast 487 560 41,000  Level Fort Worth Center
07:47AM 34.1869 -96.2636 32° Northeast 480 552 41,000  Level Fort Worth Center
07:48AM 34.3028 -96.1767 32° Northeast 480 552 41,000  Level Fort Worth Center
07:49AM 34.4189 -96.0944 30° Northeast 480 552 41,000  Level Fort Worth Center
07:50AM 34.5369 -96.0069 31° Northeast 485 558 41,000  Level Fort Worth Center
07:51AM 34.6547 -95.9217 31° Northeast 491 565 41,000  Level Fort Worth Center
07:52AM 34.7706 -95.8386 30° Northeast 486 559 41,000  Level Fort Worth Center
07:53AM 34.8819 -95.7431 35° Northeast 486 559 41,000  Level Fort Worth Center
07:54AM 34.9767 -95.6397 42° Northeast 500 575 41,000  Level Fort Worth Center
07:56AM 35.1678 -95.4142 44° Northeast 510 587 41,000  Level Memphis Center
07:57AM 35.2686 -95.2933 44° Northeast 505 581 41,000  Level Memphis Center
07:58AM 35.3689 -95.1769 43° Northeast 499 574 41,000  Level Memphis Center
07:59AM 35.4694 -95.0553 45° Northeast 499 574 41,000  Level Memphis Center
08:00AM 35.5700 -94.9358 44° Northeast 499 574 41,000  Level Memphis Center
08:01AM 35.6722 -94.8164 43° Northeast 499 574 41,000  Level Memphis Center
08:02AM 35.7703 -94.6964 45° Northeast 499 574 41,000  Level Memphis Center
08:03AM 35.8706 -94.5761 44° Northeast 499 574 41,000  Level Memphis Center
08:04AM 35.9725 -94.4556 44° Northeast 499 574 41,000  Level Memphis Center
08:05AM 36.0722 -94.3347 44° Northeast 499 574 41,000  Level Memphis Center
08:06AM 36.2700 -94.2322 23° Northeast 481 554 41,000  Level Kansas City Center
08:07AM 36.3922 -94.1625 25° Northeast 483 556 41,000  Level Kansas City Center
08:08AM 36.5000 -94.0628 37° Northeast 484 557 41,000  Level Kansas City Center
08:09AM 36.6067 -93.9592 38° Northeast 486 559 41,000  Level Kansas City Center
08:10AM 36.7133 -93.8581 37° Northeast 484 557 41,000  Level Kansas City Center
08:11AM 36.8250 -93.7511 37° Northeast 483 556 41,000  Level Kansas City Center
08:12AM 36.9342 -93.6469 37° Northeast 481 554 41,000  Level Kansas City Center
08:13AM 37.0408 -93.5422 38° Northeast 482 555 41,000  Level Kansas City Center
08:14AM 37.1461 -93.4369 39° Northeast 484 557 41,000  Level Kansas City Center
08:16AM 37.2336 -93.3036 50° Northeast 492 566 41,000  Level Kansas City Center
08:17AM 37.3178 -93.1661 52° Northeast 496 571 41,000  Level Kansas City Center
08:18AM 37.4206 -93.0075 51° Northeast 488 562 41,000  Level Kansas City Center
08:19AM 37.5111 -92.8772 49° Northeast 492 566 41,000  Level Kansas City Center
08:20AM 37.6042 -92.7492 47° Northeast 494 568 41,000  Level Kansas City Center
08:21AM 37.6867 -92.6358 47° Northeast 493 567 41,000  Level Kansas City Center
08:22AM 37.7886 -92.5194 42° Northeast 494 568 41,000  Level Kansas City Center
08:23AM 37.9128 -92.3808 41° Northeast 495 570 41,000  Level Kansas City Center
08:24AM 38.0228 -92.2769 37° Northeast 493 567 41,000  Level Kansas City Center
08:25AM 38.1386 -92.1811 33° Northeast 493 567 41,000  Level Kansas City Center
08:26AM 38.2561 -92.0750 35° Northeast 493 567 41,000  Level Kansas City Center
08:27AM 38.3683 -91.9725 36° Northeast 494 568 41,000  Level Kansas City Center
08:28AM 38.4803 -91.8694 36° Northeast 495 570 41,000  Level Kansas City Center
08:29AM 38.5711 -91.7347 49° Northeast 503 579 41,000  Level Kansas City Center
08:30AM 38.6583 -91.5917 52° Northeast 507 583 41,000  Level Kansas City Center
08:31AM 38.7378 -91.4572 53° Northeast 506 582 41,000  Level Kansas City Center
08:32AM 38.8225 -91.3114 53° Northeast 508 585 41,000  Level Kansas City Center
08:33AM 38.9086 -91.1653 53° Northeast 510 587 41,000  Level Kansas City Center
08:34AM 39.0125 -90.9936 52° Northeast 508 585 41,000  Level Kansas City Center
08:35AM 39.1108 -90.8669 45° Northeast 500 575 41,000 -360 Level Kansas City Center
08:36AM 39.2072 -90.7356 47° Northeast 501 577 40,300 -1,020 Descending Kansas City Center
08:37AM 39.3025 -90.6036 47° Northeast 501 577 39,000 -1,500 Descending Kansas City Center
08:38AM 39.3983 -90.4744 46° Northeast 498 573 37,300 -1,680 Descending Kansas City Center
08:39AM 39.4919 -90.3475 46° Northeast 490 564 35,700 -1,620 Descending Kansas City Center
08:40AM 39.5864 -90.2239 45° Northeast 486 559 34,100 -1,500 Descending Kansas City Center
08:41AM 39.7053 -90.1522 25° Northeast 477 549 32,600 -1,560 Descending Kansas City Center
08:42AM 39.8425 -90.0992 17° North 473 544 31,000 -1,020 Descending Kansas City Center
08:43AM 39.9169 -90.0728 15° North 470 541 31,000  Level Chicago Center
08:44AM 40.0372 -90.0297 15° North 454 522 31,000  Level Chicago Center
08:45AM 40.1525 -89.9875 16° North 433 498 31,000 -420 Level Chicago Center
08:46AM 40.2892 -89.9381 15° North 424 488 30,200 -1,020 Descending Chicago Center
08:47AM 40.4006 -89.9294 North 398 458 29,000 -1,080 Descending Chicago Center
08:48AM 40.5056 -89.9358 357° North 389 448 28,000 -1,080 Descending Chicago Center
08:49AM 40.6114 -89.9061 12° North 408 470 26,800 -2,100 Descending Chicago Center
08:50AM 40.6753 -89.7711 58° Northeast 437 503 23,700 -2,880 Descending Chicago Center
08:51AM 40.7553 -89.6028 58° Northeast 452 520 20,900 -2,220 Descending Chicago Center
08:52AM 40.8150 -89.4711 59° Northeast 435 501 19,200 -1,680 Descending Chicago Center
08:53AM 40.8733 -89.3439 59° Northeast 410 472 17,500 -1,080 Descending Chicago Center
08:54AM 40.9317 -89.2239 57° Northeast 391 450 17,000 -660 Descending Chicago Center
08:55AM 41.0014 -89.1250 47° Northeast 373 429 16,200 -900 Descending Chicago Center
08:56AM 41.0664 -89.0297 48° Northeast 352 405 15,200 -1,080 Descending Chicago Center
08:57AM 41.1453 -88.9122 48° Northeast 355 409 14,000 -1,260 Descending Chicago Center
08:58AM 41.2103 -88.8178 48° Northeast 352 405 12,600 -1,500 Descending Chicago Center
08:59AM 41.2728 -88.7247 48° Northeast 342 394 10,900 -1,620 Descending Chicago Center
09:00AM 41.3350 -88.6328 48° Northeast 336 387 9,300 -1,500 Descending Chicago Center
09:01AM 41.3956 -88.5431 48° Northeast 330 380 7,800 -1,260 Descending Chicago Center
09:02AM 41.4531 -88.4572 48° Northeast 320 368 6,800 -900 Descending Chicago Center
09:03AM 41.5072 -88.3758 48° Northeast 307 353 6,000 -720 Descending Chicago Center
09:04AM 41.5483 -88.2650 64° Northeast 298 343 5,400 -480 Descending Chicago Center
09:05AM 41.5633 -88.1606 79° East 290 334 5,100 -180 Descending Chicago Center
09:06AM 41.5664 -88.0547 88° East 285 328 5,100  Level Chicago Center
09:07AM 41.5697 -87.9481 88° East 284 327 5,100 -300 Level Chicago Center
09:08AM 41.5722 -87.8428 88° East 284 327 4,500 -540 Descending Chicago Center
09:09AM 41.5756 -87.7444 87° East 276 318 4,000 -540 Descending Chicago Center
09:11AM 41.5806 -87.6631 85° East 246 283 3,400 -480 Descending Chicago Center
09:12AM 41.6169 -87.6111 47° Northeast 211 243 3,100 -300 Descending Chicago Center
09:12AM 41.6667 -87.6333 342° North 180 207 2,900 -540 Descending Chicago TRACON
09:13AM 41.7167 -87.6500 346° North 172 198 2,200 -600 Descending Chicago TRACON
09:14AM 41.7333 -87.6833 304° West 146 168 1,800 -600 Descending Chicago TRACON
09:15AM 41.7667 -87.7167 323° Northwest 121 139 1,100 -720 Descending Chicago TRACON